Time;durP1;ratioP1;P1;durP2;ratioP2;P2;SDS_P1;SDS_P2;PMS_P1;PMS_P2;Temp;Humidity;BMP_temperature;BMP_pressure;BME280_temperature;BME280_humidity;BME280_pressure;Samples;Min_cycle;Max_cycle;Signal;HPM_P1;HPM_P2
2022/06/14 00:02:22;;;;;;;22.03;12.50;;;;;;;10.32;92.22;99038.00;2212058;81;20992;-83
2022/06/14 00:05:41;;;;;;;15.60;10.23;;;;;;;10.36;91.95;99038.08;2212195;80;21403;-82
2022/06/14 00:09:00;;;;;;;16.90;10.77;;;;;;;10.44;92.40;99039.53;2212220;81;21000;-82
2022/06/14 00:12:01;;;;;;;14.63;10.10;;;;;;;10.52;92.39;99040.53;2212751;80;20972;-82
2022/06/14 00:15:00;;;;;;;14.97;9.83;;;;;;;10.55;92.19;99041.88;2212995;80;20952;-83
2022/06/14 00:18:01;;;;;;;15.67;10.93;;;;;;;10.57;92.15;99048.00;2212894;80;20921;-82
2022/06/14 00:21:01;;;;;;;21.43;12.40;;;;;;;10.58;92.13;99045.84;2212994;80;21328;-82
2022/06/14 00:24:02;;;;;;;16.70;10.87;;;;;;;10.62;92.26;99054.59;2212872;80;20921;-82
2022/06/14 00:27:02;;;;;;;17.93;11.40;;;;;;;10.66;92.17;99053.78;2213042;80;20940;-81
2022/06/14 00:30:02;;;;;;;16.47;13.03;;;;;;;10.70;92.05;99057.77;2212804;80;20982;-82
2022/06/14 00:33:03;;;;;;;16.17;12.73;;;;;;;10.75;91.97;99058.71;2212661;80;20971;-82
2022/06/14 00:36:03;;;;;;;17.03;15.07;;;;;;;10.78;91.68;99057.45;2212299;80;20959;-82
2022/06/14 00:39:04;;;;;;;17.37;11.13;;;;;;;10.83;91.55;99059.70;2210808;80;21062;-82
2022/06/14 00:42:04;;;;;;;15.47;11.10;;;;;;;10.88;91.46;99058.89;2212547;80;21019;-83
2022/06/14 00:45:04;;;;;;;17.13;9.87;;;;;;;10.91;91.32;99061.54;2211190;80;20947;-82
2022/06/14 00:48:09;;;;;;;17.17;9.40;;;;;;;10.93;91.30;99064.63;2211520;80;20972;-82
2022/06/14 00:51:07;;;;;;;18.50;9.73;;;;;;;10.96;91.26;99067.70;2201684;81;20944;-82
2022/06/14 00:54:08;;;;;;;15.70;8.77;;;;;;;10.94;91.04;99068.11;2212559;81;20936;-82
2022/06/14 00:57:08;;;;;;;17.73;9.37;;;;;;;10.91;90.74;99070.68;2212482;80;20957;-82
2022/06/14 01:00:08;;;;;;;20.53;8.57;;;;;;;10.84;90.78;99081.04;2216960;80;21371;-82
2022/06/14 01:03:09;;;;;;;14.23;8.37;;;;;;;10.79;90.73;99081.83;2222608;79;20928;-83
2022/06/14 01:06:09;;;;;;;15.77;8.47;;;;;;;10.73;90.87;99078.70;2222940;80;20919;-83
2022/06/14 01:09:10;;;;;;;17.07;8.80;;;;;;;10.67;90.68;99078.61;2222421;80;21406;-82
2022/06/14 01:12:10;;;;;;;16.53;8.87;;;;;;;10.63;90.79;99076.80;2222696;79;20955;-81
2022/06/14 01:15:10;;;;;;;16.37;9.00;;;;;;;10.61;90.92;99073.72;2222836;80;20974;-82
2022/06/14 01:18:11;;;;;;;14.77;9.00;;;;;;;10.57;90.96;99078.02;2222526;79;20956;-82
2022/06/14 01:21:11;;;;;;;14.77;8.80;;;;;;;10.52;90.92;99078.37;2222596;80;20923;-82
2022/06/14 01:24:12;;;;;;;14.83;8.57;;;;;;;10.48;91.03;99077.88;2222639;80;20924;-83
2022/06/14 01:27:12;;;;;;;12.63;8.60;;;;;;;10.43;90.97;99084.75;2222634;79;21284;-83
2022/06/14 01:30:12;;;;;;;18.93;11.67;;;;;;;10.38;90.95;99085.95;2222892;80;20921;-83
2022/06/14 01:33:13;;;;;;;28.13;14.47;;;;;;;10.38;91.20;99091.59;2192974;80;20915;-83
2022/06/14 01:36:13;;;;;;;15.90;12.00;;;;;;;10.29;91.02;99093.63;2236387;78;21004;-81
2022/06/14 01:39:14;;;;;;;15.30;12.47;;;;;;;10.22;90.92;99096.98;2236849;79;21023;-82
2022/06/14 01:42:15;;;;;;;24.57;14.30;;;;;;;10.16;91.00;99093.81;2192626;81;21402;-83
2022/06/14 01:45:15;;;;;;;23.17;14.90;;;;;;;10.12;90.91;99099.83;2236537;78;20944;-83
2022/06/14 01:48:16;;;;;;;26.33;16.67;;;;;;;10.07;91.14;99097.56;2236482;79;21019;-82
2022/06/14 01:54:42;;;;;;;24.47;17.20;;;;;;;10.02;91.28;99103.55;2236515;79;20976;-83
2022/06/14 01:57:42;;;;;;;27.30;20.37;;;;;;;9.94;91.08;99106.44;2236288;79;20975;-83
2022/06/14 02:00:43;;;;;;;22.07;18.00;;;;;;;9.92;91.36;99107.71;2236780;79;20932;-80
2022/06/14 02:07:02;;;;;;;21.13;16.50;;;;;;;9.84;90.66;99105.39;2236854;80;20959;-80
2022/06/14 02:10:03;;;;;;;25.03;18.73;;;;;;;9.82;90.40;99103.17;2236346;79;20967;-83
2022/06/14 02:13:03;;;;;;;20.67;16.47;;;;;;;9.72;89.58;99106.45;2236479;79;20987;-82
2022/06/14 02:16:05;;;;;;;27.30;16.00;;;;;;;9.60;89.33;99106.22;2236676;79;20913;-84
2022/06/14 02:19:04;;;;;;;22.97;16.10;;;;;;;9.49;89.34;99102.94;2236292;79;20924;-79
2022/06/14 02:22:05;;;;;;;20.87;16.40;;;;;;;9.44;89.66;99107.19;2236574;79;21007;-79
2022/06/14 02:25:05;;;;;;;28.63;16.10;;;;;;;9.48;90.40;99115.94;2236439;79;21003;-84
2022/06/14 02:28:05;;;;;;;16.53;14.90;;;;;;;9.50;89.84;99111.64;2236778;79;20872;-83
2022/06/14 02:31:05;;;;;;;20.50;15.10;;;;;;;9.47;89.48;99112.45;2236406;79;20923;-83
2022/06/14 02:34:06;;;;;;;20.93;15.30;;;;;;;9.45;89.86;99114.16;2235652;79;21007;-83
2022/06/14 02:37:09;;;;;;;22.50;17.80;;;;;;;9.48;90.56;99124.64;2235098;79;20979;-83
2022/06/14 02:40:07;;;;;;;17.10;15.40;;;;;;;9.55;91.29;99129.58;2234544;79;21019;-82
2022/06/14 02:43:07;;;;;;;22.70;14.50;;;;;;;9.62;91.32;99124.07;2235017;79;20968;-81
2022/06/14 02:46:08;;;;;;;13.83;11.53;;;;;;;9.65;90.56;99129.34;2234767;79;20964;-83
2022/06/14 02:49:08;;;;;;;23.63;13.27;;;;;;;9.58;90.17;99129.22;2235504;79;20943;-82
2022/06/14 02:52:08;;;;;;;16.43;11.10;;;;;;;9.56;89.82;99132.64;2236490;79;20908;-84
2022/06/14 02:55:12;;;;;;;15.80;9.37;;;;;;;9.63;90.62;99138.86;2236956;79;21299;-82
2022/06/14 02:58:31;;;;;;;19.07;8.77;;;;;;;9.72;91.12;99149.05;2236312;80;21011;-83
2022/06/14 03:01:49;;;;;;;11.53;8.13;;;;;;;9.83;91.21;99146.23;2212701;80;21052;-84
2022/06/14 03:05:08;;;;;;;13.10;7.70;;;;;;;9.91;91.26;99150.28;2208480;81;21011;-84
2022/06/14 03:08:27;;;;;;;17.03;7.47;;;;;;;10.01;91.24;99152.22;2209102;81;21063;-82
2022/06/14 03:11:46;;;;;;;14.27;7.30;;;;;;;10.08;90.98;99158.00;2208494;81;20973;-83
2022/06/14 03:15:06;;;;;;;22.17;11.47;;;;;;;10.15;90.90;99165.52;2209084;81;20984;-82
2022/06/14 03:18:24;;;;;;;25.50;17.30;;;;;;;10.19;90.97;99163.42;2209685;81;21043;-83
2022/06/14 03:21:46;;;;;;;14.90;13.27;;;;;;;10.21;90.78;99168.27;2208774;81;21079;-83
2022/06/14 03:24:43;;;;;;;10.83;6.93;;;;;;;10.28;90.61;99174.05;2208244;79;21288;-81
2022/06/14 03:27:44;;;;;;;17.10;7.47;;;;;;;10.29;90.24;99178.84;2209104;79;20937;-82
2022/06/14 03:30:44;;;;;;;15.50;6.73;;;;;;;10.29;90.17;99176.23;2209198;79;21311;-82
2022/06/14 03:33:45;;;;;;;12.03;7.03;;;;;;;10.32;90.00;99182.81;2209028;79;20933;-81
2022/06/14 03:36:45;;;;;;;16.13;7.70;;;;;;;10.35;89.87;99182.88;2208352;79;20968;-81
2022/06/14 03:39:46;;;;;;;14.60;7.57;;;;;;;10.40;89.66;99186.44;2207202;79;21035;-81
2022/06/14 03:42:46;;;;;;;20.03;8.80;;;;;;;10.43;89.53;99186.10;2206760;79;20991;-82
2022/06/14 03:45:46;;;;;;;30.90;9.17;;;;;;;10.46;89.36;99194.41;2207852;79;20980;-82
2022/06/14 03:48:47;;;;;;;13.67;7.13;;;;;;;10.51;89.56;99194.95;2207533;79;21606;-82
2022/06/14 03:51:47;;;;;;;11.97;7.20;;;;;;;10.56;89.30;99205.47;2206960;79;20928;-83
2022/06/14 03:54:48;;;;;;;12.40;7.53;;;;;;;10.60;89.47;99201.18;2206567;79;20995;-83
2022/06/14 03:57:48;;;;;;;16.60;6.53;;;;;;;10.66;89.23;99199.55;2206185;79;21065;-84
2022/06/14 04:00:49;;;;;;;11.80;7.23;;;;;;;10.80;89.23;99204.58;2217853;79;21390;-82
2022/06/14 04:03:49;;;;;;;14.23;6.90;;;;;;;10.98;89.03;99202.69;2234964;79;21033;-83
2022/06/14 04:06:49;;;;;;;10.80;6.60;;;;;;;11.18;88.39;99203.00;2233858;79;20998;-85
2022/06/14 04:09:50;;;;;;;10.80;6.92;;;;;;;11.37;88.61;99219.43;2233877;79;21003;-81
2022/06/14 04:12:50;;;;;;;8.93;6.10;;;;;;;11.60;88.01;99213.64;2233719;79;20987;-81
2022/06/14 04:15:50;;;;;;;15.58;6.60;;;;;;;11.82;87.67;99214.84;2233949;79;20991;-84
2022/06/14 04:18:54;;;;;;;10.88;5.90;;;;;;;12.04;86.47;99216.43;2233085;80;20998;-84
2022/06/14 04:21:54;;;;;;;9.43;5.30;;;;;;;12.21;85.58;99218.39;2233678;79;20991;-82
2022/06/14 04:24:55;;;;;;;20.32;5.50;;;;;;;12.41;85.16;99217.75;2233793;79;20975;-82
2022/06/14 04:27:57;;;;;;;11.38;6.20;;;;;;;12.57;84.33;99217.47;2211600;80;21049;-82
2022/06/14 04:30:57;;;;;;;10.45;5.40;;;;;;;12.74;84.13;99219.81;2233411;79;21411;-81
2022/06/14 04:33:58;;;;;;;8.25;4.97;;;;;;;12.85;82.88;99220.34;2233821;79;21043;-83
2022/06/14 04:36:58;;;;;;;10.65;4.60;;;;;;;12.99;82.61;99213.47;2234570;79;20943;-80
2022/06/14 04:40:00;;;;;;;12.98;5.17;;;;;;;13.17;82.17;99214.98;2234597;80;21026;-81
2022/06/14 04:43:00;;;;;;;12.98;4.75;;;;;;;13.30;81.23;99210.27;2233509;79;21030;-81
2022/06/14 04:46:00;;;;;;;9.45;5.00;;;;;;;13.45;80.90;99213.86;2233871;80;21010;-80
2022/06/14 04:49:01;;;;;;;8.38;4.55;;;;;;;13.56;80.28;99218.30;2234439;79;20978;-81
2022/06/14 04:52:01;;;;;;;8.88;4.85;;;;;;;13.61;80.06;99221.83;2234405;79;20928;-81
2022/06/14 04:55:02;;;;;;;9.63;5.12;;;;;;;13.73;79.51;99210.52;2233851;79;21029;-81
2022/06/14 04:58:02;;;;;;;11.83;5.10;;;;;;;13.90;78.00;99218.07;2234209;79;21058;-80
2022/06/14 05:01:03;;;;;;;10.72;4.95;;;;;;;13.90;78.00;99218.07;2222634;79;21035;-81
2022/06/14 05:04:03;;;;;;;15.93;5.95;;;;;;;13.85;77.82;99214.52;2206445;79;21016;-81
2022/06/14 05:07:03;;;;;;;7.42;5.40;;;;;;;13.84;77.40;99221.94;2205621;81;20968;-83
2022/06/14 05:10:04;;;;;;;13.13;5.28;;;;;;;13.84;76.84;99227.19;2205162;79;21396;-79
2022/06/14 05:13:04;;;;;;;10.82;4.72;;;;;;;14.02;77.62;99228.63;2203487;81;21332;-79
2022/06/14 05:16:05;;;;;;;7.00;4.33;;;;;;;14.29;76.42;99221.27;2206237;79;21442;-80
2022/06/14 05:19:08;;;;;;;7.78;4.42;;;;;;;14.47;74.28;99224.41;2206375;79;20984;-81
2022/06/14 05:22:08;;;;;;;6.40;4.47;;;;;;;14.55;74.68;99224.43;2205685;79;21023;-79
2022/06/14 05:25:06;;;;;;;11.53;4.55;;;;;;;14.56;74.54;99223.56;2206118;79;21448;-81
2022/06/14 05:28:06;;;;;;;9.15;4.25;;;;;;;14.74;74.45;99227.96;2205483;79;21011;-78
2022/06/14 05:31:07;;;;;;;9.78;4.37;;;;;;;14.89;73.06;99230.64;2204138;80;20944;-79
2022/06/14 05:34:07;;;;;;;16.62;4.80;;;;;;;15.02;72.93;99229.77;2204497;79;20944;-79
2022/06/14 05:37:07;;;;;;;10.45;4.58;;;;;;;15.00;71.94;99231.95;2205310;79;21375;-81
2022/06/14 05:40:08;;;;;;;6.58;4.05;;;;;;;15.04;71.99;99231.08;2205452;79;21011;-81
2022/06/14 05:43:08;;;;;;;8.25;3.90;;;;;;;15.06;71.89;99227.58;2205779;81;21012;-80
2022/06/14 05:46:09;;;;;;;8.25;3.90;;;;;;;15.18;71.05;99230.20;2205397;79;20989;-79
2022/06/14 05:49:09;;;;;;;13.98;5.42;;;;;;;15.23;70.70;99232.39;2202995;79;22047;-81
2022/06/14 05:52:10;;;;;;;11.50;4.83;;;;;;;15.27;69.56;99234.14;2204758;79;21015;-80
2022/06/14 05:55:10;;;;;;;9.45;5.15;;;;;;;15.37;69.19;99234.13;2206571;79;20948;-80
2022/06/14 05:58:10;;;;;;;5.50;4.20;;;;;;;15.37;68.31;99238.08;2206787;79;21305;-80
2022/06/14 06:01:11;;;;;;;5.28;3.33;;;;;;;15.47;69.10;99230.61;2207103;79;20961;-80
2022/06/14 06:04:11;;;;;;;75.92;6.15;;;;;;;15.54;69.58;99230.59;2206552;79;21386;-80
2022/06/14 06:07:12;;;;;;;12.53;4.97;;;;;;;15.62;67.64;99238.98;2207423;79;20991;-80
2022/06/14 06:10:18;;;;;;;11.20;5.50;;;;;;;15.75;67.16;99228.41;2207519;79;20984;-80
2022/06/14 06:13:18;;;;;;;10.28;4.97;;;;;;;15.85;66.62;99235.41;2206383;81;21031;-80
2022/06/14 06:16:19;;;;;;;5.20;3.77;;;;;;;15.91;67.73;99230.12;2205447;79;20956;-80
2022/06/14 06:19:19;;;;;;;8.15;3.65;;;;;;;16.04;67.65;99234.02;2205830;79;20913;-80
2022/06/14 06:22:19;;;;;;;6.00;2.77;;;;;;;16.17;67.46;99235.72;2205348;80;21755;-79
2022/06/14 06:25:20;;;;;;;6.58;3.80;;;;;;;16.37;67.18;99227.72;2203841;79;20936;-79
2022/06/14 06:28:21;;;;;;;6.70;4.08;;;;;;;16.56;66.06;99228.95;2203446;79;21007;-79
2022/06/14 06:31:21;;;;;;;4.30;3.30;;;;;;;16.65;65.89;99238.59;2203216;80;21427;-79
2022/06/14 06:34:21;;;;;;;9.08;3.30;;;;;;;16.71;65.35;99235.05;2203134;81;20988;-79
2022/06/14 06:37:21;;;;;;;7.87;3.17;;;;;;;16.85;64.88;99239.78;2203576;79;20960;-78
2022/06/14 06:40:22;;;;;;;10.63;2.80;;;;;;;16.98;62.60;99243.20;2203891;80;21008;-79
2022/06/14 06:43:22;;;;;;;15.80;4.05;;;;;;;17.09;62.99;99246.63;2204855;79;20983;-79
2022/06/14 06:46:23;;;;;;;6.33;3.05;;;;;;;17.29;61.74;99241.19;2204426;79;21044;-80
2022/06/14 06:49:24;;;;;;;4.55;3.02;;;;;;;17.42;60.04;99240.22;2206066;79;20920;-79
2022/06/14 06:52:24;;;;;;;5.03;2.90;;;;;;;17.60;60.59;99236.08;2205270;79;20975;-80
2022/06/14 06:55:24;;;;;;;4.80;3.10;;;;;;;17.94;59.87;99240.58;2206271;79;21004;-80
2022/06/14 06:58:24;;;;;;;5.80;3.02;;;;;;;18.18;57.66;99233.25;2206235;81;20960;-79
2022/06/14 07:01:25;;;;;;;4.55;2.87;;;;;;;18.10;59.18;99246.55;2206087;79;20960;-79
2022/06/14 07:07:44;;;;;;;5.97;3.00;;;;;;;17.87;57.46;99242.86;2206244;81;20980;-81
2022/06/14 07:10:44;;;;;;;6.10;2.65;;;;;;;17.62;58.71;99242.66;2206291;79;21015;-80
2022/06/14 07:13:45;;;;;;;5.87;2.67;;;;;;;17.75;59.50;99239.91;2207249;79;20983;-79
2022/06/14 07:16:45;;;;;;;3.87;2.25;;;;;;;18.29;57.00;99241.50;2205418;79;20983;-81
2022/06/14 07:19:46;;;;;;;3.75;2.08;;;;;;;18.65;54.82;99236.64;2207215;79;20987;-79
2022/06/14 07:22:46;;;;;;;13.25;3.90;;;;;;;18.43;55.15;99244.84;2208803;79;21431;-81
2022/06/14 07:25:46;;;;;;;7.42;3.22;;;;;;;18.62;55.99;99235.36;2207992;79;20991;-80
2022/06/14 07:28:47;;;;;;;5.17;2.93;;;;;;;19.06;54.89;99242.16;2207424;79;20976;-81
2022/06/14 07:31:47;;;;;;;4.22;2.25;;;;;;;19.30;53.64;99241.37;2208353;79;21003;-80
2022/06/14 07:34:48;;;;;;;6.28;2.02;;;;;;;19.55;54.01;99243.17;2207667;79;20913;-80
2022/06/14 07:37:48;;;;;;;5.30;1.90;;;;;;;19.47;53.07;99240.63;2207089;79;20924;-81
2022/06/14 07:40:48;;;;;;;4.85;1.85;;;;;;;19.81;50.90;99234.73;2206624;79;21071;-80
2022/06/14 07:43:49;;;;;;;3.47;2.00;;;;;;;20.02;49.08;99238.33;2206953;79;21422;-79
2022/06/14 07:46:49;;;;;;;5.33;2.10;;;;;;;19.60;48.27;99241.31;2204710;79;20948;-81
2022/06/14 07:49:50;;;;;;;9.08;2.55;;;;;;;19.64;49.38;99248.30;2205381;79;20956;-80
2022/06/14 07:52:50;;;;;;;6.50;2.10;;;;;;;19.78;49.11;99249.37;2206074;81;20932;-80
2022/06/14 07:55:51;;;;;;;6.67;1.85;;;;;;;19.97;49.68;99237.55;2204327;79;21399;-80
2022/06/14 07:58:51;;;;;;;4.30;1.62;;;;;;;19.94;50.34;99247.75;2205892;79;21016;-80
2022/06/14 08:01:51;;;;;;;3.17;1.60;;;;;;;19.63;49.07;99247.42;2216789;79;21062;-82
2022/06/14 08:04:52;;;;;;;3.60;1.70;;;;;;;19.96;49.33;99245.07;2233987;80;20998;-80
2022/06/14 08:07:52;;;;;;;5.40;1.57;;;;;;;20.15;47.64;99238.95;2233938;79;20943;-81
2022/06/14 08:10:53;;;;;;;3.45;1.60;;;;;;;20.21;48.31;99249.42;2232861;79;20995;-80
2022/06/14 08:13:53;;;;;;;2.92;1.55;;;;;;;20.22;45.08;99246.74;2233161;79;20948;-79
2022/06/14 08:16:54;;;;;;;4.10;1.60;;;;;;;19.83;46.64;99245.73;2229093;79;21070;-81
2022/06/14 08:19:54;;;;;;;2.58;1.55;;;;;;;19.92;47.81;99242.02;2232957;79;21348;-78
2022/06/14 08:22:54;;;;;;;3.45;1.70;;;;;;;19.64;48.87;99248.30;2233275;79;21018;-80
2022/06/14 08:25:55;;;;;;;1.72;1.40;;;;;;;20.00;46.87;99241.45;2233211;79;21295;-79
2022/06/14 08:28:55;;;;;;;1.37;1.27;;;;;;;19.96;46.78;99239.77;2232905;79;20955;-78
2022/06/14 08:31:56;;;;;;;3.30;1.40;;;;;;;19.92;47.23;99247.33;2233948;79;20975;-80
2022/06/14 08:34:57;;;;;;;2.83;1.30;;;;;;;20.19;47.13;99240.18;2233217;78;20979;-81
2022/06/14 08:37:57;;;;;;;2.55;1.27;;;;;;;20.79;47.08;99237.58;2232690;80;20975;-80
2022/06/14 08:40:58;;;;;;;3.47;1.30;;;;;;;20.60;45.67;99233.14;2233673;80;21999;-80
2022/06/14 08:43:58;;;;;;;3.12;1.57;;;;;;;20.75;45.53;99232.80;2234445;79;21026;-81
2022/06/14 08:46:59;;;;;;;3.30;1.35;;;;;;;20.95;45.15;99227.92;2234155;79;21082;-82
2022/06/14 08:49:59;;;;;;;3.85;1.32;;;;;;;21.52;43.93;99218.10;2234198;78;20956;-81
2022/06/14 08:53:00;;;;;;;3.35;1.50;;;;;;;21.72;43.95;99223.37;2234116;80;21318;-81
2022/06/14 08:56:01;;;;;;;2.70;1.40;;;;;;;22.06;41.95;99228.65;2233857;80;20991;-82
2022/06/14 08:59:01;;;;;;;3.60;1.40;;;;;;;21.72;41.77;99224.23;2233823;79;21111;-81
2022/06/14 09:02:01;;;;;;;2.12;1.40;;;;;;;21.04;42.88;99231.27;2233930;80;20968;-80
2022/06/14 09:05:02;;;;;;;4.95;1.50;;;;;;;20.57;44.61;99226.58;2233667;79;21425;-82
2022/06/14 09:08:02;;;;;;;3.22;1.62;;;;;;;20.22;45.01;99235.27;2233643;79;21426;-80
2022/06/14 09:11:06;;;;;;;4.08;1.52;;;;;;;20.04;44.83;99237.39;2233619;79;21489;-82
2022/06/14 09:14:06;;;;;;;3.25;1.37;;;;;;;19.96;45.26;99230.05;2233410;80;20947;-81
2022/06/14 09:17:07;;;;;;;3.02;1.35;;;;;;;19.69;46.43;99230.09;2232933;79;20951;-80
2022/06/14 09:20:08;;;;;;;2.92;1.22;;;;;;;19.30;45.50;99236.08;2233169;80;21402;-81
2022/06/14 09:23:07;;;;;;;3.05;1.42;;;;;;;19.67;44.44;99235.88;2232758;79;21034;-80
2022/06/14 09:26:08;;;;;;;3.42;1.30;;;;;;;20.55;45.06;99236.34;2233023;79;20976;-80
2022/06/14 09:29:11;;;;;;;4.05;1.47;;;;;;;20.90;42.32;99235.58;2233005;80;21046;-80
2022/06/14 09:32:11;;;;;;;5.17;1.30;;;;;;;21.14;41.49;99241.62;2232708;79;20986;-80
2022/06/14 09:35:12;;;;;;;3.62;1.30;;;;;;;21.45;39.50;99241.75;2234139;79;20908;-79
2022/06/14 09:38:15;;;;;;;2.45;1.05;;;;;;;21.56;40.12;99230.39;2233193;79;21572;-78
2022/06/14 09:41:15;;;;;;;2.67;1.40;;;;;;;21.71;41.14;99224.28;2229987;79;21592;-78
2022/06/14 09:44:18;;;;;;;2.52;1.12;;;;;;;21.34;40.12;99246.46;2210744;80;21037;-81
2022/06/14 09:47:21;;;;;;;4.72;1.07;;;;;;;21.01;41.21;99243.28;2232917;79;21013;-80
2022/06/14 09:50:19;;;;;;;2.15;1.15;;;;;;;20.88;41.27;99245.35;2233390;79;20955;-79
2022/06/14 09:53:19;;;;;;;3.45;1.32;;;;;;;20.91;41.05;99234.66;2233064;79;20987;-78
2022/06/14 09:56:20;;;;;;;3.72;1.60;;;;;;;20.54;41.80;99246.09;2231365;79;20951;-79
2022/06/14 09:59:21;;;;;;;2.35;1.30;;;;;;;20.20;42.38;99243.25;2233208;79;20975;-78
2022/06/14 10:02:20;;;;;;;1.85;1.40;;;;;;;20.13;43.11;99242.95;2232926;79;21022;-78
2022/06/14 10:05:21;;;;;;;3.27;1.45;;;;;;;20.15;43.36;99261.02;2232954;79;20975;-79
2022/06/14 10:08:21;;;;;;;3.72;1.47;;;;;;;19.94;43.78;99250.81;2232957;79;20995;-80
2022/06/14 10:11:22;;;;;;;1.98;0.98;;;;;;;19.70;43.83;99254.35;2233237;79;20998;-81
2022/06/14 10:14:22;;;;;;;3.42;1.30;;;;;;;19.69;45.09;99256.58;2232615;79;20982;-80
2022/06/14 10:17:22;;;;;;;6.90;1.40;;;;;;;19.80;44.09;99252.86;2232652;80;21363;-81
2022/06/14 10:20:23;;;;;;;2.67;1.50;;;;;;;19.79;44.29;99253.77;2233275;79;21326;-79
2022/06/14 10:23:23;;;;;;;8.95;1.85;;;;;;;19.94;44.40;99257.44;2233221;79;20987;-79
2022/06/14 10:29:45;;;;;;;3.00;1.40;;;;;;;21.16;42.86;99241.58;2230297;80;21979;-82
2022/06/14 10:32:46;;;;;;;5.67;1.50;;;;;;;21.72;41.19;99235.33;2233796;79;20983;-82
2022/06/14 10:35:46;;;;;;;11.65;1.87;;;;;;;21.52;41.36;99243.33;2234109;80;21021;-81
2022/06/14 10:38:46;;;;;;;5.15;1.40;;;;;;;21.18;40.90;99242.41;2233575;80;21450;-82
2022/06/14 10:41:47;;;;;;;3.65;1.00;;;;;;;20.93;41.31;99246.11;2233301;79;21086;-77
2022/06/14 10:44:47;;;;;;;60.73;4.58;;;;;;;20.71;41.97;99241.73;2230813;80;21034;-81
2022/06/14 10:47:48;;;;;;;6.83;1.67;;;;;;;20.78;42.55;99237.16;2232710;79;21488;-81
2022/06/14 10:50:48;;;;;;;2.90;1.20;;;;;;;21.20;42.96;99239.27;2233353;80;20955;-82
2022/06/14 10:53:49;;;;;;;4.42;1.32;;;;;;;21.14;41.66;99240.74;2233297;80;20979;-82
2022/06/14 10:56:49;;;;;;;3.62;1.60;;;;;;;21.23;40.08;99240.09;2234427;79;20963;-81
2022/06/14 10:59:49;;;;;;;3.27;1.10;;;;;;;21.53;39.44;99231.80;2234018;79;20987;-82
2022/06/14 11:02:50;;;;;;;3.75;1.47;;;;;;;21.86;38.96;99241.13;2233763;79;21023;-82
2022/06/14 11:05:50;;;;;;;2.55;1.10;;;;;;;22.36;40.14;99222.89;2235774;79;20943;-83
2022/06/14 11:08:50;;;;;;;6.05;1.45;;;;;;;22.84;37.17;99211.25;2233846;79;21630;-80
2022/06/14 11:11:51;;;;;;;4.00;1.32;;;;;;;23.23;37.30;99214.86;2233557;79;21061;-78
2022/06/14 11:14:51;;;;;;;2.00;1.10;;;;;;;23.45;37.20;99208.78;2232551;79;21038;-79
2022/06/14 11:17:52;;;;;;;4.40;1.55;;;;;;;23.32;37.09;99207.44;2234144;78;20983;-80
2022/06/14 11:20:52;;;;;;;2.12;1.05;;;;;;;23.27;36.60;99209.38;2234099;79;20963;-82
2022/06/14 11:23:53;;;;;;;35.08;3.27;;;;;;;23.39;36.07;99208.09;2234401;79;20990;-82
2022/06/14 11:26:53;;;;;;;3.25;1.22;;;;;;;23.45;35.68;99206.13;2233567;79;20967;-82
2022/06/14 11:29:53;;;;;;;3.83;1.50;;;;;;;22.93;36.12;99212.75;2233310;79;20958;-83
2022/06/14 11:32:54;;;;;;;4.72;1.55;;;;;;;22.46;38.33;99218.58;2234034;79;20991;-82
2022/06/14 11:35:54;;;;;;;6.20;1.87;;;;;;;22.62;38.22;99215.02;2233245;79;20927;-83
2022/06/14 11:38:55;;;;;;;2.72;1.15;;;;;;;22.82;38.55;99211.77;2233188;79;21006;-82
2022/06/14 11:41:55;;;;;;;12.23;1.72;;;;;;;22.60;37.79;99222.18;2233231;79;20971;-81
2022/06/14 11:44:55;;;;;;;2.60;1.20;;;;;;;22.24;37.53;99232.10;2233588;79;21390;-81
2022/06/14 11:47:56;;;;;;;3.83;1.20;;;;;;;21.51;38.67;99233.62;2233052;80;20928;-83
2022/06/14 11:50:56;;;;;;;5.45;1.40;;;;;;;20.83;40.67;99226.89;2233337;79;20955;-82
2022/06/14 11:53:57;;;;;;;5.90;1.10;;;;;;;20.47;42.37;99225.91;2233367;79;21399;-83
2022/06/14 11:57:00;;;;;;;2.83;1.30;;;;;;;20.22;42.88;99232.16;2233063;79;20968;-82
2022/06/14 12:00:01;;;;;;;4.37;1.30;;;;;;;20.20;43.60;99230.00;2233480;79;20967;-81
2022/06/14 12:03:01;;;;;;;5.70;1.70;;;;;;;20.39;43.11;99230.52;2233301;79;21114;-82
2022/06/14 12:06:05;;;;;;;5.03;1.40;;;;;;;20.79;42.57;99239.77;2233645;80;20916;-82
2022/06/14 12:09:02;;;;;;;6.05;1.60;;;;;;;20.92;40.35;99237.73;2233010;79;21330;-79
2022/06/14 12:12:02;;;;;;;5.33;1.62;;;;;;;20.76;40.27;99231.88;2232730;79;20968;-80
2022/06/14 12:15:03;;;;;;;2.83;1.27;;;;;;;20.67;40.44;99221.48;2232618;80;21006;-82
2022/06/14 12:18:03;;;;;;;3.40;1.50;;;;;;;20.62;41.47;99231.33;2232345;79;21271;-80
2022/06/14 12:21:03;;;;;;;2.25;1.27;;;;;;;20.65;42.21;99229.93;2232225;80;20963;-82
2022/06/14 12:24:04;;;;;;;4.67;1.40;;;;;;;20.80;39.83;99236.21;2232432;79;20999;-80
2022/06/14 12:27:04;;;;;;;4.20;1.45;;;;;;;20.87;40.76;99225.03;2232031;79;20923;-84
2022/06/14 12:30:05;;;;;;;4.78;1.20;;;;;;;20.91;41.23;99230.23;2232350;78;20924;-83
2022/06/14 12:33:06;;;;;;;3.30;1.47;;;;;;;20.99;41.28;99230.05;2232292;79;21303;-80
2022/06/14 12:36:05;;;;;;;4.65;1.37;;;;;;;21.10;40.71;99217.84;2232173;80;20923;-80
2022/06/14 12:39:07;;;;;;;4.05;1.40;;;;;;;21.37;40.06;99218.50;2232733;80;20951;-80
2022/06/14 12:42:06;;;;;;;2.45;1.22;;;;;;;21.40;40.31;99217.09;2232293;79;21441;-81
2022/06/14 12:45:07;;;;;;;5.00;1.75;;;;;;;21.36;38.74;99214.10;2232706;79;20987;-80
2022/06/14 12:48:07;;;;;;;2.15;1.27;;;;;;;21.48;38.97;99204.48;2233149;79;20919;-78
2022/06/14 12:51:07;;;;;;;4.62;1.50;;;;;;;21.43;39.55;99207.72;2231346;79;21406;-82
2022/06/14 12:54:08;;;;;;;5.75;1.27;;;;;;;21.19;39.57;99214.95;2232874;79;21030;-81
2022/06/14 12:57:08;;;;;;;3.45;1.42;;;;;;;20.99;39.15;99224.28;2233784;79;20923;-83
2022/06/14 13:00:09;;;;;;;4.47;1.25;;;;;;;20.88;39.64;99213.05;2233090;79;21034;-80
2022/06/14 13:03:09;;;;;;;2.10;1.35;;;;;;;21.08;39.74;99210.38;2233517;79;21007;-82
2022/06/14 13:06:09;;;;;;;2.58;1.25;;;;;;;21.01;37.18;99211.44;2233645;80;21409;-81
2022/06/14 13:09:10;;;;;;;6.37;1.65;;;;;;;20.93;38.32;99204.98;2233251;79;20955;-82
2022/06/14 13:12:10;;;;;;;4.45;1.27;;;;;;;20.96;38.56;99204.45;2233118;79;20960;-81
2022/06/14 13:15:11;;;;;;;2.00;1.22;;;;;;;20.89;38.43;99207.30;2234283;79;21412;-82
2022/06/14 13:18:11;;;;;;;3.42;1.30;;;;;;;21.05;38.26;99210.45;2233912;79;20959;-81
2022/06/14 13:21:11;;;;;;;4.03;1.60;;;;;;;21.04;37.80;99217.53;2234103;78;21067;-81
2022/06/14 13:24:12;;;;;;;3.00;1.25;;;;;;;21.04;36.80;99210.03;2234371;80;20990;-81
2022/06/14 13:27:12;;;;;;;4.78;1.35;;;;;;;20.79;37.36;99213.24;2233635;79;21069;-81
2022/06/14 13:30:13;;;;;;;3.33;1.77;;;;;;;20.61;38.71;99206.58;2233649;79;20979;-81
2022/06/14 13:33:13;;;;;;;4.00;1.47;;;;;;;20.49;39.06;99216.14;2233540;79;22013;-81
2022/06/14 13:36:14;;;;;;;3.20;1.50;;;;;;;20.42;39.91;99216.31;2233987;79;20975;-82
2022/06/14 13:39:14;;;;;;;4.42;1.65;;;;;;;20.40;39.92;99215.02;2234527;79;21006;-84
2022/06/14 13:42:14;;;;;;;3.05;1.40;;;;;;;20.41;39.99;99214.57;2235515;79;20999;-82
2022/06/14 13:45:15;;;;;;;4.50;1.50;;;;;;;20.53;40.20;99217.82;2235347;79;21002;-82
2022/06/14 13:48:16;;;;;;;3.45;1.50;;;;;;;20.61;39.93;99213.67;2235447;79;20959;-81
2022/06/14 13:51:15;;;;;;;3.37;1.30;;;;;;;20.66;38.84;99221.94;2235066;79;21342;-79
2022/06/14 13:54:16;;;;;;;3.90;1.20;;;;;;;20.69;38.91;99207.73;2234841;79;20999;-81
2022/06/14 13:57:16;;;;;;;11.22;4.28;;;;;;;20.86;38.11;99210.02;2234514;79;20963;-82
2022/06/14 14:00:17;;;;;;;3.65;2.42;;;;;;;21.01;37.18;99208.78;2234081;78;21011;-82
2022/06/14 14:03:17;;;;;;;2.37;1.07;;;;;;;21.09;37.06;99207.68;2224557;79;21690;-80
2022/06/14 14:06:17;;;;;;;4.70;1.90;;;;;;;21.06;37.69;99205.55;2206760;79;20963;-81
2022/06/14 14:09:18;;;;;;;4.90;2.02;;;;;;;21.00;38.19;99209.23;2206217;79;21044;-80
2022/06/14 14:12:18;;;;;;;4.70;3.25;;;;;;;20.90;38.60;99201.95;2206779;79;20980;-81
2022/06/14 14:15:20;;;;;;;3.40;1.95;;;;;;;21.12;39.21;99209.39;2208295;79;21023;-81
2022/06/14 14:18:19;;;;;;;2.02;1.17;;;;;;;21.38;38.87;99203.44;2207269;81;20964;-80
2022/06/14 14:21:20;;;;;;;3.67;1.72;;;;;;;21.59;37.50;99202.41;2205827;81;20975;-79